sensor_id;sensor_type;location;lat;lon;timestamp;temperature;humidity
68867;SHT30;56451;44.804;20.476;2022-07-23T00:01:31;30.25;32.78
68867;SHT30;56451;44.804;20.476;2022-07-23T00:03:58;30.22;32.92
68867;SHT30;56451;44.804;20.476;2022-07-23T00:06:24;30.19;33.16
68867;SHT30;56451;44.804;20.476;2022-07-23T00:08:50;30.20;32.15
68867;SHT30;56451;44.804;20.476;2022-07-23T00:11:16;30.19;32.08
68867;SHT30;56451;44.804;20.476;2022-07-23T00:13:42;30.20;31.88
68867;SHT30;56451;44.804;20.476;2022-07-23T00:16:08;30.20;31.87
68867;SHT30;56451;44.804;20.476;2022-07-23T00:18:33;30.17;32.02
68867;SHT30;56451;44.804;20.476;2022-07-23T00:20:59;30.16;32.00
68867;SHT30;56451;44.804;20.476;2022-07-23T00:23:25;30.12;31.99
68867;SHT30;56451;44.804;20.476;2022-07-23T00:25:52;30.10;32.11
68867;SHT30;56451;44.804;20.476;2022-07-23T00:28:18;30.08;32.29
68867;SHT30;56451;44.804;20.476;2022-07-23T00:30:44;30.09;32.50
68867;SHT30;56451;44.804;20.476;2022-07-23T00:33:11;30.05;32.53
68867;SHT30;56451;44.804;20.476;2022-07-23T00:35:40;30.02;32.89
68867;SHT30;56451;44.804;20.476;2022-07-23T00:38:08;30.01;32.83
68867;SHT30;56451;44.804;20.476;2022-07-23T00:40:35;29.99;33.22
68867;SHT30;56451;44.804;20.476;2022-07-23T00:43:02;29.96;32.63
68867;SHT30;56451;44.804;20.476;2022-07-23T00:45:28;29.95;32.80
68867;SHT30;56451;44.804;20.476;2022-07-23T00:47:54;29.92;32.82
68867;SHT30;56451;44.804;20.476;2022-07-23T00:50:20;29.93;33.11
68867;SHT30;56451;44.804;20.476;2022-07-23T00:52:46;29.85;33.50
68867;SHT30;56451;44.804;20.476;2022-07-23T00:55:13;29.85;33.59
68867;SHT30;56451;44.804;20.476;2022-07-23T00:57:41;29.85;33.87
68867;SHT30;56451;44.804;20.476;2022-07-23T01:00:11;29.79;33.91
68867;SHT30;56451;44.804;20.476;2022-07-23T01:02:37;29.74;33.68
68867;SHT30;56451;44.804;20.476;2022-07-23T01:05:03;29.72;33.60
68867;SHT30;56451;44.804;20.476;2022-07-23T01:07:29;29.72;33.40
68867;SHT30;56451;44.804;20.476;2022-07-23T01:09:55;29.69;32.80
68867;SHT30;56451;44.804;20.476;2022-07-23T01:12:21;29.68;32.35
68867;SHT30;56451;44.804;20.476;2022-07-23T01:14:58;29.71;32.38
68867;SHT30;56451;44.804;20.476;2022-07-23T01:17:25;29.69;32.44
68867;SHT30;56451;44.804;20.476;2022-07-23T01:19:52;29.68;32.92
68867;SHT30;56451;44.804;20.476;2022-07-23T01:22:20;29.67;32.81
68867;SHT30;56451;44.804;20.476;2022-07-23T01:24:46;29.68;32.61
68867;SHT30;56451;44.804;20.476;2022-07-23T01:27:12;29.67;32.38
68867;SHT30;56451;44.804;20.476;2022-07-23T01:29:39;29.65;31.75
68867;SHT30;56451;44.804;20.476;2022-07-23T01:32:11;29.65;32.35
68867;SHT30;56451;44.804;20.476;2022-07-23T01:34:37;29.62;31.54
68867;SHT30;56451;44.804;20.476;2022-07-23T01:37:03;29.59;31.90
68867;SHT30;56451;44.804;20.476;2022-07-23T01:39:30;29.57;32.54
68867;SHT30;56451;44.804;20.476;2022-07-23T01:41:56;29.59;31.82
68867;SHT30;56451;44.804;20.476;2022-07-23T01:44:23;29.55;32.81
68867;SHT30;56451;44.804;20.476;2022-07-23T01:46:49;29.55;34.06
68867;SHT30;56451;44.804;20.476;2022-07-23T01:49:16;29.48;34.68
68867;SHT30;56451;44.804;20.476;2022-07-23T01:51:59;29.46;35.11
68867;SHT30;56451;44.804;20.476;2022-07-23T01:54:30;29.37;37.60
68867;SHT30;56451;44.804;20.476;2022-07-23T01:56:57;29.33;38.03
68867;SHT30;56451;44.804;20.476;2022-07-23T01:59:23;29.21;38.97
68867;SHT30;56451;44.804;20.476;2022-07-23T02:01:50;29.14;40.23
68867;SHT30;56451;44.804;20.476;2022-07-23T02:04:17;29.07;41.60
68867;SHT30;56451;44.804;20.476;2022-07-23T02:06:43;29.03;42.78
68867;SHT30;56451;44.804;20.476;2022-07-23T02:09:09;28.99;43.69
68867;SHT30;56451;44.804;20.476;2022-07-23T02:11:36;28.93;43.79
68867;SHT30;56451;44.804;20.476;2022-07-23T02:14:02;28.92;44.05
68867;SHT30;56451;44.804;20.476;2022-07-23T02:16:28;28.88;43.43
68867;SHT30;56451;44.804;20.476;2022-07-23T02:18:59;28.88;43.14
68867;SHT30;56451;44.804;20.476;2022-07-23T02:21:25;28.84;42.03
68867;SHT30;56451;44.804;20.476;2022-07-23T02:23:52;28.82;41.59
68867;SHT30;56451;44.804;20.476;2022-07-23T02:26:19;28.78;41.14
68867;SHT30;56451;44.804;20.476;2022-07-23T02:28:45;28.79;40.30
68867;SHT30;56451;44.804;20.476;2022-07-23T02:31:11;28.78;39.51
68867;SHT30;56451;44.804;20.476;2022-07-23T02:33:37;28.75;38.60
68867;SHT30;56451;44.804;20.476;2022-07-23T02:36:03;28.75;38.27
68867;SHT30;56451;44.804;20.476;2022-07-23T02:38:30;28.72;37.22
68867;SHT30;56451;44.804;20.476;2022-07-23T02:40:56;28.71;36.85
68867;SHT30;56451;44.804;20.476;2022-07-23T02:43:22;28.69;37.03
68867;SHT30;56451;44.804;20.476;2022-07-23T02:45:48;28.65;36.52
68867;SHT30;56451;44.804;20.476;2022-07-23T02:48:14;28.63;36.47
68867;SHT30;56451;44.804;20.476;2022-07-23T02:50:42;28.61;36.43
68867;SHT30;56451;44.804;20.476;2022-07-23T02:53:11;28.63;36.62
68867;SHT30;56451;44.804;20.476;2022-07-23T02:55:38;28.56;36.76
68867;SHT30;56451;44.804;20.476;2022-07-23T02:58:04;28.56;37.19
68867;SHT30;56451;44.804;20.476;2022-07-23T03:00:30;28.49;36.86
68867;SHT30;56451;44.804;20.476;2022-07-23T03:02:56;28.47;36.64
68867;SHT30;56451;44.804;20.476;2022-07-23T03:05:22;28.44;36.53
68867;SHT30;56451;44.804;20.476;2022-07-23T03:07:48;28.41;36.34
68867;SHT30;56451;44.804;20.476;2022-07-23T03:10:14;28.35;36.53
68867;SHT30;56451;44.804;20.476;2022-07-23T03:12:39;28.35;36.36
68867;SHT30;56451;44.804;20.476;2022-07-23T03:15:06;28.34;36.12
68867;SHT30;56451;44.804;20.476;2022-07-23T03:17:32;28.35;35.88
68867;SHT30;56451;44.804;20.476;2022-07-23T03:19:58;28.35;35.50
68867;SHT30;56451;44.804;20.476;2022-07-23T03:22:24;28.35;36.15
68867;SHT30;56451;44.804;20.476;2022-07-23T03:24:49;28.40;35.15
68867;SHT30;56451;44.804;20.476;2022-07-23T03:27:34;28.44;35.04
68867;SHT30;56451;44.804;20.476;2022-07-23T03:30:00;28.44;35.33
68867;SHT30;56451;44.804;20.476;2022-07-23T03:32:27;28.45;35.64
68867;SHT30;56451;44.804;20.476;2022-07-23T03:34:53;28.52;34.93
68867;SHT30;56451;44.804;20.476;2022-07-23T03:37:20;28.55;35.22
68867;SHT30;56451;44.804;20.476;2022-07-23T03:39:46;28.61;34.89
68867;SHT30;56451;44.804;20.476;2022-07-23T03:42:13;28.62;35.28
68867;SHT30;56451;44.804;20.476;2022-07-23T03:44:38;28.65;35.16
68867;SHT30;56451;44.804;20.476;2022-07-23T03:47:05;28.61;35.44
68867;SHT30;56451;44.804;20.476;2022-07-23T03:49:32;28.63;35.18
68867;SHT30;56451;44.804;20.476;2022-07-23T03:51:58;28.61;35.16
68867;SHT30;56451;44.804;20.476;2022-07-23T03:54:24;28.65;35.05
68867;SHT30;56451;44.804;20.476;2022-07-23T03:56:50;28.66;35.09
68867;SHT30;56451;44.804;20.476;2022-07-23T03:59:16;28.66;35.22
68867;SHT30;56451;44.804;20.476;2022-07-23T04:01:42;28.68;34.98
68867;SHT30;56451;44.804;20.476;2022-07-23T04:04:07;28.71;34.92
68867;SHT30;56451;44.804;20.476;2022-07-23T04:06:36;28.71;34.81
68867;SHT30;56451;44.804;20.476;2022-07-23T04:09:02;28.72;34.61
68867;SHT30;56451;44.804;20.476;2022-07-23T04:11:30;28.73;34.63
68867;SHT30;56451;44.804;20.476;2022-07-23T04:13:56;28.75;35.04
68867;SHT30;56451;44.804;20.476;2022-07-23T04:16:22;28.75;35.08
68867;SHT30;56451;44.804;20.476;2022-07-23T04:18:49;28.73;35.56
68867;SHT30;56451;44.804;20.476;2022-07-23T04:21:17;28.78;35.38
68867;SHT30;56451;44.804;20.476;2022-07-23T04:23:44;28.76;35.28
68867;SHT30;56451;44.804;20.476;2022-07-23T04:26:11;28.78;35.58
68867;SHT30;56451;44.804;20.476;2022-07-23T04:28:37;28.78;35.94
68867;SHT30;56451;44.804;20.476;2022-07-23T04:31:04;28.80;35.63
68867;SHT30;56451;44.804;20.476;2022-07-23T04:33:30;28.82;35.47
68867;SHT30;56451;44.804;20.476;2022-07-23T04:35:58;28.84;35.23
68867;SHT30;56451;44.804;20.476;2022-07-23T04:38:24;28.88;34.70
68867;SHT30;56451;44.804;20.476;2022-07-23T04:40:54;28.89;34.35
68867;SHT30;56451;44.804;20.476;2022-07-23T04:43:20;28.96;34.26
68867;SHT30;56451;44.804;20.476;2022-07-23T04:45:48;28.96;34.15
68867;SHT30;56451;44.804;20.476;2022-07-23T04:48:14;28.99;35.00
68867;SHT30;56451;44.804;20.476;2022-07-23T04:50:40;29.03;34.54
68867;SHT30;56451;44.804;20.476;2022-07-23T04:53:14;29.11;33.51
68867;SHT30;56451;44.804;20.476;2022-07-23T04:55:41;29.14;33.96
68867;SHT30;56451;44.804;20.476;2022-07-23T04:58:07;29.19;33.91
68867;SHT30;56451;44.804;20.476;2022-07-23T05:00:33;29.17;34.58
68867;SHT30;56451;44.804;20.476;2022-07-23T05:02:58;29.26;34.07
68867;SHT30;56451;44.804;20.476;2022-07-23T05:05:24;29.30;34.12
68867;SHT30;56451;44.804;20.476;2022-07-23T05:07:54;29.31;33.92
68867;SHT30;56451;44.804;20.476;2022-07-23T05:10:20;29.34;34.32
68867;SHT30;56451;44.804;20.476;2022-07-23T05:12:46;29.38;34.30
68867;SHT30;56451;44.804;20.476;2022-07-23T05:15:12;29.40;34.51
68867;SHT30;56451;44.804;20.476;2022-07-23T05:17:37;29.43;34.25
68867;SHT30;56451;44.804;20.476;2022-07-23T05:20:10;29.46;34.35
68867;SHT30;56451;44.804;20.476;2022-07-23T05:22:36;29.51;34.19
68867;SHT30;56451;44.804;20.476;2022-07-23T05:25:03;29.55;34.50
68867;SHT30;56451;44.804;20.476;2022-07-23T05:27:30;29.57;34.54
68867;SHT30;56451;44.804;20.476;2022-07-23T05:29:56;29.61;34.73
68867;SHT30;56451;44.804;20.476;2022-07-23T05:36:11;29.69;34.89
68867;SHT30;56451;44.804;20.476;2022-07-23T05:38:46;29.72;35.00
68867;SHT30;56451;44.804;20.476;2022-07-23T05:41:12;29.78;34.75
68867;SHT30;56451;44.804;20.476;2022-07-23T05:43:38;29.79;34.88
68867;SHT30;56451;44.804;20.476;2022-07-23T05:46:09;29.84;34.50
68867;SHT30;56451;44.804;20.476;2022-07-23T05:48:37;29.86;34.13
68867;SHT30;56451;44.804;20.476;2022-07-23T05:51:11;29.89;33.84
68867;SHT30;56451;44.804;20.476;2022-07-23T05:53:37;29.93;33.12
68867;SHT30;56451;44.804;20.476;2022-07-23T05:56:17;29.95;33.51
68867;SHT30;56451;44.804;20.476;2022-07-23T05:58:44;29.98;32.34
68867;SHT30;56451;44.804;20.476;2022-07-23T06:01:11;30.02;31.02
68867;SHT30;56451;44.804;20.476;2022-07-23T06:03:46;30.06;30.88
68867;SHT30;56451;44.804;20.476;2022-07-23T06:06:12;30.10;30.37
68867;SHT30;56451;44.804;20.476;2022-07-23T06:08:38;30.16;30.59
68867;SHT30;56451;44.804;20.476;2022-07-23T06:11:06;30.20;31.96
68867;SHT30;56451;44.804;20.476;2022-07-23T06:13:33;30.22;32.30
68867;SHT30;56451;44.804;20.476;2022-07-23T06:15:58;30.23;32.72
68867;SHT30;56451;44.804;20.476;2022-07-23T06:18:24;30.27;32.09
68867;SHT30;56451;44.804;20.476;2022-07-23T06:20:52;30.32;31.97
68867;SHT30;56451;44.804;20.476;2022-07-23T06:23:18;30.32;32.35
68867;SHT30;56451;44.804;20.476;2022-07-23T06:25:44;30.35;32.43
68867;SHT30;56451;44.804;20.476;2022-07-23T06:28:10;30.36;33.51
68867;SHT30;56451;44.804;20.476;2022-07-23T06:30:36;30.39;33.18
68867;SHT30;56451;44.804;20.476;2022-07-23T06:33:02;30.40;32.64
68867;SHT30;56451;44.804;20.476;2022-07-23T06:35:28;30.44;32.64
68867;SHT30;56451;44.804;20.476;2022-07-23T06:37:54;30.53;34.00
68867;SHT30;56451;44.804;20.476;2022-07-23T06:40:21;30.57;36.40
68867;SHT30;56451;44.804;20.476;2022-07-23T06:42:47;30.64;39.05
68867;SHT30;56451;44.804;20.476;2022-07-23T06:45:17;30.65;40.11
68867;SHT30;56451;44.804;20.476;2022-07-23T06:47:43;30.67;38.69
68867;SHT30;56451;44.804;20.476;2022-07-23T06:50:09;30.65;35.84
68867;SHT30;56451;44.804;20.476;2022-07-23T06:52:35;30.74;34.13
68867;SHT30;56451;44.804;20.476;2022-07-23T06:55:01;30.77;37.84
68867;SHT30;56451;44.804;20.476;2022-07-23T06:57:27;30.81;39.12
68867;SHT30;56451;44.804;20.476;2022-07-23T06:59:53;30.85;38.51
68867;SHT30;56451;44.804;20.476;2022-07-23T07:02:19;30.88;40.02
68867;SHT30;56451;44.804;20.476;2022-07-23T07:04:46;30.92;41.58
68867;SHT30;56451;44.804;20.476;2022-07-23T07:07:12;30.96;41.74
68867;SHT30;56451;44.804;20.476;2022-07-23T07:09:38;30.98;42.79
68867;SHT30;56451;44.804;20.476;2022-07-23T07:12:04;30.99;42.87
68867;SHT30;56451;44.804;20.476;2022-07-23T07:14:30;30.96;42.88
68867;SHT30;56451;44.804;20.476;2022-07-23T07:16:56;30.98;43.50
68867;SHT30;56451;44.804;20.476;2022-07-23T07:19:22;30.92;43.09
68867;SHT30;56451;44.804;20.476;2022-07-23T07:21:48;30.92;43.12
68867;SHT30;56451;44.804;20.476;2022-07-23T07:24:13;30.90;42.93
68867;SHT30;56451;44.804;20.476;2022-07-23T07:26:39;30.87;42.59
68867;SHT30;56451;44.804;20.476;2022-07-23T07:29:06;30.90;42.30
68867;SHT30;56451;44.804;20.476;2022-07-23T07:31:31;30.88;42.39
68867;SHT30;56451;44.804;20.476;2022-07-23T07:33:58;30.90;42.01
68867;SHT30;56451;44.804;20.476;2022-07-23T07:36:24;30.90;42.01
68867;SHT30;56451;44.804;20.476;2022-07-23T07:38:50;30.90;41.78
68867;SHT30;56451;44.804;20.476;2022-07-23T07:41:15;30.90;41.05
68867;SHT30;56451;44.804;20.476;2022-07-23T07:43:41;30.92;41.02
68867;SHT30;56451;44.804;20.476;2022-07-23T07:46:08;30.95;40.51
68867;SHT30;56451;44.804;20.476;2022-07-23T07:48:37;31.04;40.33
68867;SHT30;56451;44.804;20.476;2022-07-23T07:51:06;31.04;39.52
68867;SHT30;56451;44.804;20.476;2022-07-23T07:53:32;31.05;39.02
68867;SHT30;56451;44.804;20.476;2022-07-23T07:55:58;31.14;38.10
68867;SHT30;56451;44.804;20.476;2022-07-23T07:58:24;31.14;38.00
68867;SHT30;56451;44.804;20.476;2022-07-23T08:00:50;31.18;37.69
68867;SHT30;56451;44.804;20.476;2022-07-23T08:03:16;31.23;37.63
68867;SHT30;56451;44.804;20.476;2022-07-23T08:05:42;31.31;37.20
68867;SHT30;56451;44.804;20.476;2022-07-23T08:08:08;31.38;37.06
68867;SHT30;56451;44.804;20.476;2022-07-23T08:10:40;31.42;36.80
68867;SHT30;56451;44.804;20.476;2022-07-23T08:13:06;31.49;36.86
68867;SHT30;56451;44.804;20.476;2022-07-23T08:15:32;31.52;36.64
68867;SHT30;56451;44.804;20.476;2022-07-23T08:17:58;31.58;36.80
68867;SHT30;56451;44.804;20.476;2022-07-23T08:20:25;31.65;37.42
68867;SHT30;56451;44.804;20.476;2022-07-23T08:25:27;31.72;38.09
68867;SHT30;56451;44.804;20.476;2022-07-23T08:27:54;31.77;37.70
68867;SHT30;56451;44.804;20.476;2022-07-23T08:30:20;31.86;37.61
68867;SHT30;56451;44.804;20.476;2022-07-23T08:35:17;31.91;37.63
68867;SHT30;56451;44.804;20.476;2022-07-23T08:37:43;31.91;38.09
68867;SHT30;56451;44.804;20.476;2022-07-23T08:40:09;31.93;38.08
68867;SHT30;56451;44.804;20.476;2022-07-23T08:42:35;31.97;38.48
68867;SHT30;56451;44.804;20.476;2022-07-23T08:45:02;31.96;37.84
68867;SHT30;56451;44.804;20.476;2022-07-23T08:47:29;32.00;38.66
68867;SHT30;56451;44.804;20.476;2022-07-23T08:49:56;32.04;38.18
68867;SHT30;56451;44.804;20.476;2022-07-23T08:52:24;32.11;37.82
68867;SHT30;56451;44.804;20.476;2022-07-23T08:54:51;32.16;42.34
68867;SHT30;56451;44.804;20.476;2022-07-23T08:57:17;31.91;39.87
68867;SHT30;56451;44.804;20.476;2022-07-23T08:59:42;31.84;38.96
68867;SHT30;56451;44.804;20.476;2022-07-23T09:02:08;31.84;38.04
68867;SHT30;56451;44.804;20.476;2022-07-23T09:04:35;31.84;37.73
68867;SHT30;56451;44.804;20.476;2022-07-23T09:07:01;31.89;37.40
68867;SHT30;56451;44.804;20.476;2022-07-23T09:09:27;31.94;36.98
68867;SHT30;56451;44.804;20.476;2022-07-23T09:12:06;32.00;36.71
68867;SHT30;56451;44.804;20.476;2022-07-23T09:14:37;32.08;36.79
68867;SHT30;56451;44.804;20.476;2022-07-23T09:19:36;32.27;36.95
68867;SHT30;56451;44.804;20.476;2022-07-23T09:22:22;32.35;37.41
68867;SHT30;56451;44.804;20.476;2022-07-23T09:25:13;32.49;37.05
68867;SHT30;56451;44.804;20.476;2022-07-23T09:27:55;32.61;36.73
68867;SHT30;56451;44.804;20.476;2022-07-23T09:30:26;32.72;36.15
68867;SHT30;56451;44.804;20.476;2022-07-23T09:33:10;32.79;36.10
68867;SHT30;56451;44.804;20.476;2022-07-23T09:35:47;32.87;35.23
68867;SHT30;56451;44.804;20.476;2022-07-23T09:38:14;32.93;35.28
68867;SHT30;56451;44.804;20.476;2022-07-23T09:40:40;32.98;35.71
68867;SHT30;56451;44.804;20.476;2022-07-23T09:43:06;33.02;35.93
68867;SHT30;56451;44.804;20.476;2022-07-23T09:45:32;33.12;35.97
68867;SHT30;56451;44.804;20.476;2022-07-23T09:48:15;33.17;34.83
68867;SHT30;56451;44.804;20.476;2022-07-23T09:50:42;33.26;34.80
68867;SHT30;56451;44.804;20.476;2022-07-23T09:53:08;33.29;33.92
68867;SHT30;56451;44.804;20.476;2022-07-23T09:55:35;33.31;33.27
68867;SHT30;56451;44.804;20.476;2022-07-23T09:58:08;33.39;32.80
68867;SHT30;56451;44.804;20.476;2022-07-23T10:00:45;33.49;32.74
68867;SHT30;56451;44.804;20.476;2022-07-23T10:03:13;33.54;32.66
68867;SHT30;56451;44.804;20.476;2022-07-23T10:05:57;33.64;31.72
68867;SHT30;56451;44.804;20.476;2022-07-23T10:08:31;33.70;31.48
68867;SHT30;56451;44.804;20.476;2022-07-23T10:11:36;33.72;31.34
68867;SHT30;56451;44.804;20.476;2022-07-23T10:14:11;33.80;31.40
68867;SHT30;56451;44.804;20.476;2022-07-23T10:16:57;33.87;31.13
68867;SHT30;56451;44.804;20.476;2022-07-23T10:19:23;33.90;31.54
68867;SHT30;56451;44.804;20.476;2022-07-23T10:21:53;33.97;30.89
68867;SHT30;56451;44.804;20.476;2022-07-23T10:24:40;34.02;31.17
68867;SHT30;56451;44.804;20.476;2022-07-23T10:27:30;34.02;31.80
68867;SHT30;56451;44.804;20.476;2022-07-23T10:30:07;34.01;31.59
68867;SHT30;56451;44.804;20.476;2022-07-23T10:37:39;33.84;31.45
68867;SHT30;56451;44.804;20.476;2022-07-23T10:40:16;33.80;32.07
68867;SHT30;56451;44.804;20.476;2022-07-23T10:42:44;33.78;30.89
68867;SHT30;56451;44.804;20.476;2022-07-23T10:45:33;33.87;30.29
68867;SHT30;56451;44.804;20.476;2022-07-23T10:48:19;34.01;30.21
68867;SHT30;56451;44.804;20.476;2022-07-23T10:51:05;34.11;31.05
68867;SHT30;56451;44.804;20.476;2022-07-23T10:54:04;34.11;30.34
68867;SHT30;56451;44.804;20.476;2022-07-23T10:59:22;34.29;29.30
68867;SHT30;56451;44.804;20.476;2022-07-23T11:01:48;34.42;28.82
68867;SHT30;56451;44.804;20.476;2022-07-23T11:04:13;34.50;28.44
68867;SHT30;56451;44.804;20.476;2022-07-23T11:09:27;34.70;28.14
68867;SHT30;56451;44.804;20.476;2022-07-23T11:17:23;34.70;27.35
68867;SHT30;56451;44.804;20.476;2022-07-23T11:25:12;34.94;27.10
68867;SHT30;56451;44.804;20.476;2022-07-23T11:27:43;34.98;27.93
68867;SHT30;56451;44.804;20.476;2022-07-23T11:35:39;35.23;26.75
68867;SHT30;56451;44.804;20.476;2022-07-23T11:38:21;35.28;27.18
68867;SHT30;56451;44.804;20.476;2022-07-23T11:40:56;35.27;27.69
68867;SHT30;56451;44.804;20.476;2022-07-23T11:43:24;35.25;27.82
68867;SHT30;56451;44.804;20.476;2022-07-23T11:45:57;35.27;27.00
68867;SHT30;56451;44.804;20.476;2022-07-23T11:48:26;35.32;27.34
68867;SHT30;56451;44.804;20.476;2022-07-23T11:50:54;35.34;27.53
68867;SHT30;56451;44.804;20.476;2022-07-23T11:53:31;35.39;26.87
68867;SHT30;56451;44.804;20.476;2022-07-23T11:56:09;35.38;28.15
68867;SHT30;56451;44.804;20.476;2022-07-23T11:58:36;35.27;28.28
68867;SHT30;56451;44.804;20.476;2022-07-23T12:01:03;35.21;27.62
68867;SHT30;56451;44.804;20.476;2022-07-23T12:03:29;35.31;27.52
68867;SHT30;56451;44.804;20.476;2022-07-23T12:05:59;35.31;27.17
68867;SHT30;56451;44.804;20.476;2022-07-23T12:08:25;35.37;27.55
68867;SHT30;56451;44.804;20.476;2022-07-23T12:10:51;35.34;27.50
68867;SHT30;56451;44.804;20.476;2022-07-23T12:13:19;35.27;27.72
68867;SHT30;56451;44.804;20.476;2022-07-23T12:15:52;35.37;27.10
68867;SHT30;56451;44.804;20.476;2022-07-23T12:18:23;35.46;27.63
68867;SHT30;56451;44.804;20.476;2022-07-23T12:20:52;35.41;27.98
68867;SHT30;56451;44.804;20.476;2022-07-23T12:23:20;35.41;28.03
68867;SHT30;56451;44.804;20.476;2022-07-23T12:25:49;35.39;27.18
68867;SHT30;56451;44.804;20.476;2022-07-23T12:28:27;35.41;26.77
68867;SHT30;56451;44.804;20.476;2022-07-23T12:30:54;35.35;27.64
68867;SHT30;56451;44.804;20.476;2022-07-23T12:35:59;35.39;26.18
68867;SHT30;56451;44.804;20.476;2022-07-23T12:38:28;35.46;26.53
68867;SHT30;56451;44.804;20.476;2022-07-23T12:41:01;35.58;24.85
68867;SHT30;56451;44.804;20.476;2022-07-23T12:43:37;35.68;24.81
68867;SHT30;56451;44.804;20.476;2022-07-23T12:46:07;35.78;24.25
68867;SHT30;56451;44.804;20.476;2022-07-23T12:51:27;35.93;23.38
68867;SHT30;56451;44.804;20.476;2022-07-23T12:53:56;35.99;24.23
68867;SHT30;56451;44.804;20.476;2022-07-23T12:56:31;36.06;24.54
68867;SHT30;56451;44.804;20.476;2022-07-23T12:59:04;36.07;23.24
68867;SHT30;56451;44.804;20.476;2022-07-23T13:01:37;36.16;23.51
68867;SHT30;56451;44.804;20.476;2022-07-23T13:04:08;36.17;24.15
68867;SHT30;56451;44.804;20.476;2022-07-23T13:06:39;36.20;23.65
68867;SHT30;56451;44.804;20.476;2022-07-23T13:09:08;36.19;23.33
68867;SHT30;56451;44.804;20.476;2022-07-23T13:11:34;36.27;23.58
68867;SHT30;56451;44.804;20.476;2022-07-23T13:14:01;36.33;22.55
68867;SHT30;56451;44.804;20.476;2022-07-23T13:16:28;36.45;22.96
68867;SHT30;56451;44.804;20.476;2022-07-23T13:18:54;36.51;22.43
68867;SHT30;56451;44.804;20.476;2022-07-23T13:21:22;36.55;23.12
68867;SHT30;56451;44.804;20.476;2022-07-23T13:23:48;36.66;22.52
68867;SHT30;56451;44.804;20.476;2022-07-23T13:26:15;36.74;22.62
68867;SHT30;56451;44.804;20.476;2022-07-23T13:28:41;36.82;22.56
68867;SHT30;56451;44.804;20.476;2022-07-23T13:31:06;36.87;22.75
68867;SHT30;56451;44.804;20.476;2022-07-23T13:33:33;36.89;22.56
68867;SHT30;56451;44.804;20.476;2022-07-23T13:35:59;36.87;23.30
68867;SHT30;56451;44.804;20.476;2022-07-23T13:38:25;36.87;22.61
68867;SHT30;56451;44.804;20.476;2022-07-23T13:40:53;36.92;22.25
68867;SHT30;56451;44.804;20.476;2022-07-23T13:43:21;36.94;22.05
68867;SHT30;56451;44.804;20.476;2022-07-23T13:45:48;36.96;22.28
68867;SHT30;56451;44.804;20.476;2022-07-23T13:48:15;36.99;22.16
68867;SHT30;56451;44.804;20.476;2022-07-23T13:50:42;37.00;22.30
68867;SHT30;56451;44.804;20.476;2022-07-23T13:53:10;36.92;23.08
68867;SHT30;56451;44.804;20.476;2022-07-23T13:55:37;36.84;22.92
68867;SHT30;56451;44.804;20.476;2022-07-23T13:58:04;36.75;22.34
68867;SHT30;56451;44.804;20.476;2022-07-23T14:00:32;36.74;22.27
68867;SHT30;56451;44.804;20.476;2022-07-23T14:02:59;36.87;23.19
68867;SHT30;56451;44.804;20.476;2022-07-23T14:05:25;37.00;23.08
68867;SHT30;56451;44.804;20.476;2022-07-23T14:07:51;37.19;22.87
68867;SHT30;56451;44.804;20.476;2022-07-23T14:10:19;37.29;22.65
68867;SHT30;56451;44.804;20.476;2022-07-23T14:12:46;37.44;22.48
68867;SHT30;56451;44.804;20.476;2022-07-23T14:15:12;37.50;22.88
68867;SHT30;56451;44.804;20.476;2022-07-23T14:17:40;37.57;22.33
68867;SHT30;56451;44.804;20.476;2022-07-23T14:20:07;37.57;22.88
68867;SHT30;56451;44.804;20.476;2022-07-23T14:22:34;37.66;21.95
68867;SHT30;56451;44.804;20.476;2022-07-23T14:25:00;37.74;22.07
68867;SHT30;56451;44.804;20.476;2022-07-23T14:27:27;37.87;22.91
68867;SHT30;56451;44.804;20.476;2022-07-23T14:29:54;37.95;22.79
68867;SHT30;56451;44.804;20.476;2022-07-23T14:32:20;38.04;22.59
68867;SHT30;56451;44.804;20.476;2022-07-23T14:34:46;38.08;22.65
68867;SHT30;56451;44.804;20.476;2022-07-23T14:37:12;38.15;22.33
68867;SHT30;56451;44.804;20.476;2022-07-23T14:39:39;38.21;22.07
68867;SHT30;56451;44.804;20.476;2022-07-23T14:42:06;38.27;22.49
68867;SHT30;56451;44.804;20.476;2022-07-23T14:44:33;38.32;22.33
68867;SHT30;56451;44.804;20.476;2022-07-23T14:46:59;38.33;21.72
68867;SHT30;56451;44.804;20.476;2022-07-23T14:49:26;38.35;21.70
68867;SHT30;56451;44.804;20.476;2022-07-23T14:51:53;38.41;21.83
68867;SHT30;56451;44.804;20.476;2022-07-23T14:54:19;38.39;21.98
68867;SHT30;56451;44.804;20.476;2022-07-23T14:56:45;38.38;21.47
68867;SHT30;56451;44.804;20.476;2022-07-23T14:59:11;38.41;21.19
68867;SHT30;56451;44.804;20.476;2022-07-23T15:01:37;38.44;21.42
68867;SHT30;56451;44.804;20.476;2022-07-23T15:04:05;38.48;21.63
68867;SHT30;56451;44.804;20.476;2022-07-23T15:06:32;38.55;21.33
68867;SHT30;56451;44.804;20.476;2022-07-23T15:08:58;38.60;21.36
68867;SHT30;56451;44.804;20.476;2022-07-23T15:11:27;38.62;21.08
68867;SHT30;56451;44.804;20.476;2022-07-23T15:13:55;38.65;20.88
68867;SHT30;56451;44.804;20.476;2022-07-23T15:16:20;38.66;20.98
68867;SHT30;56451;44.804;20.476;2022-07-23T15:18:46;38.65;21.54
68867;SHT30;56451;44.804;20.476;2022-07-23T15:21:12;38.65;21.32
68867;SHT30;56451;44.804;20.476;2022-07-23T15:23:38;38.65;21.31
68867;SHT30;56451;44.804;20.476;2022-07-23T15:26:06;38.66;21.34
68867;SHT30;56451;44.804;20.476;2022-07-23T15:28:33;38.63;21.74
68867;SHT30;56451;44.804;20.476;2022-07-23T15:30:59;38.62;21.48
68867;SHT30;56451;44.804;20.476;2022-07-23T15:33:26;38.63;21.35
68867;SHT30;56451;44.804;20.476;2022-07-23T15:35:52;38.63;21.08
68867;SHT30;56451;44.804;20.476;2022-07-23T15:38:21;38.60;21.35
68867;SHT30;56451;44.804;20.476;2022-07-23T15:40:47;38.60;21.43
68867;SHT30;56451;44.804;20.476;2022-07-23T15:43:14;38.56;20.99
68867;SHT30;56451;44.804;20.476;2022-07-23T15:45:40;38.55;21.23
68867;SHT30;56451;44.804;20.476;2022-07-23T15:48:06;38.55;20.99
68867;SHT30;56451;44.804;20.476;2022-07-23T15:50:32;38.55;20.79
68867;SHT30;56451;44.804;20.476;2022-07-23T15:52:58;38.49;21.17
68867;SHT30;56451;44.804;20.476;2022-07-23T15:55:24;38.45;21.42
68867;SHT30;56451;44.804;20.476;2022-07-23T15:57:51;38.44;21.12
68867;SHT30;56451;44.804;20.476;2022-07-23T16:00:17;38.44;20.99
68867;SHT30;56451;44.804;20.476;2022-07-23T16:02:43;38.49;21.07
68867;SHT30;56451;44.804;20.476;2022-07-23T16:05:09;38.51;21.22